sensor_id;sensor_type;location;lat;lon;timestamp;P1;durP1;ratioP1;P2;durP2;ratioP2
25569;SDS011;17955;45.542;9.238;2022-10-17T00:02:04;65.07;;;35.13;;
25569;SDS011;17955;45.542;9.238;2022-10-17T00:04:31;59.92;;;35.42;;
25569;SDS011;17955;45.542;9.238;2022-10-17T00:06:58;64.55;;;36.75;;
25569;SDS011;17955;45.542;9.238;2022-10-17T00:09:25;67.82;;;37.55;;
25569;SDS011;17955;45.542;9.238;2022-10-17T00:11:52;61.65;;;35.78;;
25569;SDS011;17955;45.542;9.238;2022-10-17T00:14:19;64.35;;;35.45;;
25569;SDS011;17955;45.542;9.238;2022-10-17T00:16:48;60.45;;;34.65;;
25569;SDS011;17955;45.542;9.238;2022-10-17T00:19:15;57.47;;;34.28;;
25569;SDS011;17955;45.542;9.238;2022-10-17T00:21:42;62.50;;;35.42;;
25569;SDS011;17955;45.542;9.238;2022-10-17T00:24:10;64.28;;;34.30;;
25569;SDS011;17955;45.542;9.238;2022-10-17T00:26:37;60.90;;;34.30;;
25569;SDS011;17955;45.542;9.238;2022-10-17T00:29:04;67.15;;;35.45;;
25569;SDS011;17955;45.542;9.238;2022-10-17T00:31:31;57.22;;;34.92;;
25569;SDS011;17955;45.542;9.238;2022-10-17T00:34:01;65.43;;;33.95;;
25569;SDS011;17955;45.542;9.238;2022-10-17T00:36:28;56.33;;;31.85;;
25569;SDS011;17955;45.542;9.238;2022-10-17T00:38:56;55.97;;;31.92;;
25569;SDS011;17955;45.542;9.238;2022-10-17T00:41:26;62.60;;;33.55;;
25569;SDS011;17955;45.542;9.238;2022-10-17T00:43:55;55.45;;;31.55;;
25569;SDS011;17955;45.542;9.238;2022-10-17T00:46:23;55.30;;;34.03;;
25569;SDS011;17955;45.542;9.238;2022-10-17T00:48:52;62.50;;;33.85;;
25569;SDS011;17955;45.542;9.238;2022-10-17T00:51:22;65.55;;;33.38;;
25569;SDS011;17955;45.542;9.238;2022-10-17T00:53:58;60.05;;;32.20;;
25569;SDS011;17955;45.542;9.238;2022-10-17T00:56:26;54.40;;;32.53;;
25569;SDS011;17955;45.542;9.238;2022-10-17T00:58:53;60.55;;;33.90;;
25569;SDS011;17955;45.542;9.238;2022-10-17T01:01:21;61.78;;;34.53;;
25569;SDS011;17955;45.542;9.238;2022-10-17T01:03:48;58.10;;;33.70;;
25569;SDS011;17955;45.542;9.238;2022-10-17T01:06:16;62.25;;;34.00;;
25569;SDS011;17955;45.542;9.238;2022-10-17T01:08:44;62.13;;;33.45;;
25569;SDS011;17955;45.542;9.238;2022-10-17T01:11:16;54.97;;;31.67;;
25569;SDS011;17955;45.542;9.238;2022-10-17T01:13:53;63.75;;;33.72;;
25569;SDS011;17955;45.542;9.238;2022-10-17T01:16:33;55.15;;;31.35;;
25569;SDS011;17955;45.542;9.238;2022-10-17T01:19:15;63.67;;;33.55;;
25569;SDS011;17955;45.542;9.238;2022-10-17T01:22:01;61.30;;;32.53;;
25569;SDS011;17955;45.542;9.238;2022-10-17T01:24:51;58.35;;;34.55;;
25569;SDS011;17955;45.542;9.238;2022-10-17T01:27:40;62.13;;;34.83;;
25569;SDS011;17955;45.542;9.238;2022-10-17T01:33:21;62.83;;;33.47;;
25569;SDS011;17955;45.542;9.238;2022-10-17T01:35:54;60.67;;;33.50;;
25569;SDS011;17955;45.542;9.238;2022-10-17T01:38:29;56.10;;;33.35;;
25569;SDS011;17955;45.542;9.238;2022-10-17T01:41:02;60.17;;;34.35;;
25569;SDS011;17955;45.542;9.238;2022-10-17T01:43:36;59.50;;;33.90;;
25569;SDS011;17955;45.542;9.238;2022-10-17T01:46:09;59.28;;;33.00;;
25569;SDS011;17955;45.542;9.238;2022-10-17T01:48:41;56.45;;;32.63;;
25569;SDS011;17955;45.542;9.238;2022-10-17T01:51:12;56.10;;;29.23;;
25569;SDS011;17955;45.542;9.238;2022-10-17T01:53:44;53.25;;;30.27;;
25569;SDS011;17955;45.542;9.238;2022-10-17T01:56:12;57.33;;;29.83;;
25569;SDS011;17955;45.542;9.238;2022-10-17T01:58:41;61.80;;;32.05;;
25569;SDS011;17955;45.542;9.238;2022-10-17T02:01:14;54.97;;;32.40;;
25569;SDS011;17955;45.542;9.238;2022-10-17T02:03:41;54.95;;;31.33;;
25569;SDS011;17955;45.542;9.238;2022-10-17T02:06:09;54.53;;;31.25;;
25569;SDS011;17955;45.542;9.238;2022-10-17T02:08:40;57.28;;;31.20;;
25569;SDS011;17955;45.542;9.238;2022-10-17T02:11:10;57.92;;;31.60;;
25569;SDS011;17955;45.542;9.238;2022-10-17T02:13:46;64.72;;;32.05;;
25569;SDS011;17955;45.542;9.238;2022-10-17T02:16:25;58.67;;;31.90;;
25569;SDS011;17955;45.542;9.238;2022-10-17T02:19:13;63.47;;;33.65;;
25569;SDS011;17955;45.542;9.238;2022-10-17T02:21:57;63.00;;;34.03;;
25569;SDS011;17955;45.542;9.238;2022-10-17T02:24:38;67.80;;;36.55;;
25569;SDS011;17955;45.542;9.238;2022-10-17T02:27:24;60.33;;;33.33;;
25569;SDS011;17955;45.542;9.238;2022-10-17T02:29:57;63.97;;;34.15;;
25569;SDS011;17955;45.542;9.238;2022-10-17T02:32:31;66.60;;;35.63;;
25569;SDS011;17955;45.542;9.238;2022-10-17T02:35:02;58.92;;;33.85;;
25569;SDS011;17955;45.542;9.238;2022-10-17T02:37:33;68.43;;;35.55;;
25569;SDS011;17955;45.542;9.238;2022-10-17T02:40:02;60.08;;;33.50;;
25569;SDS011;17955;45.542;9.238;2022-10-17T02:42:31;60.53;;;34.58;;
25569;SDS011;17955;45.542;9.238;2022-10-17T02:44:59;65.85;;;34.83;;
25569;SDS011;17955;45.542;9.238;2022-10-17T02:47:30;69.47;;;36.55;;
25569;SDS011;17955;45.542;9.238;2022-10-17T02:50:01;60.63;;;34.72;;
25569;SDS011;17955;45.542;9.238;2022-10-17T02:52:30;66.80;;;36.28;;
25569;SDS011;17955;45.542;9.238;2022-10-17T02:55:02;60.35;;;33.20;;
25569;SDS011;17955;45.542;9.238;2022-10-17T02:57:33;68.63;;;34.47;;
25569;SDS011;17955;45.542;9.238;2022-10-17T03:00:04;61.65;;;33.13;;
25569;SDS011;17955;45.542;9.238;2022-10-17T03:02:38;67.75;;;35.92;;
25569;SDS011;17955;45.542;9.238;2022-10-17T03:05:08;58.35;;;33.83;;
25569;SDS011;17955;45.542;9.238;2022-10-17T03:07:36;63.67;;;33.00;;
25569;SDS011;17955;45.542;9.238;2022-10-17T03:10:03;69.35;;;36.75;;
25569;SDS011;17955;45.542;9.238;2022-10-17T03:12:31;61.13;;;34.42;;
25569;SDS011;17955;45.542;9.238;2022-10-17T03:14:58;64.03;;;34.72;;
25569;SDS011;17955;45.542;9.238;2022-10-17T03:17:27;62.97;;;33.55;;
25569;SDS011;17955;45.542;9.238;2022-10-17T03:19:55;65.20;;;35.47;;
25569;SDS011;17955;45.542;9.238;2022-10-17T03:22:23;68.40;;;34.60;;
25569;SDS011;17955;45.542;9.238;2022-10-17T03:24:50;59.30;;;34.58;;
25569;SDS011;17955;45.542;9.238;2022-10-17T03:27:18;64.88;;;35.45;;
25569;SDS011;17955;45.542;9.238;2022-10-17T03:29:45;62.53;;;34.67;;
25569;SDS011;17955;45.542;9.238;2022-10-17T03:32:14;69.57;;;35.97;;
25569;SDS011;17955;45.542;9.238;2022-10-17T03:34:41;59.25;;;34.10;;
25569;SDS011;17955;45.542;9.238;2022-10-17T03:37:10;70.07;;;34.63;;
25569;SDS011;17955;45.542;9.238;2022-10-17T03:39:39;66.10;;;34.40;;
25569;SDS011;17955;45.542;9.238;2022-10-17T03:42:06;60.38;;;33.42;;
25569;SDS011;17955;45.542;9.238;2022-10-17T03:44:33;63.75;;;33.28;;
25569;SDS011;17955;45.542;9.238;2022-10-17T03:47:00;57.22;;;33.03;;
25569;SDS011;17955;45.542;9.238;2022-10-17T03:49:28;62.15;;;34.72;;
25569;SDS011;17955;45.542;9.238;2022-10-17T03:51:56;60.92;;;32.85;;
25569;SDS011;17955;45.542;9.238;2022-10-17T03:54:24;63.72;;;32.90;;
25569;SDS011;17955;45.542;9.238;2022-10-17T03:56:52;59.50;;;32.53;;
25569;SDS011;17955;45.542;9.238;2022-10-17T03:59:19;61.90;;;33.95;;
25569;SDS011;17955;45.542;9.238;2022-10-17T04:01:58;63.60;;;33.03;;
25569;SDS011;17955;45.542;9.238;2022-10-17T04:04:26;63.60;;;33.75;;
25569;SDS011;17955;45.542;9.238;2022-10-17T04:06:53;67.35;;;34.22;;
25569;SDS011;17955;45.542;9.238;2022-10-17T04:09:20;57.67;;;34.17;;
25569;SDS011;17955;45.542;9.238;2022-10-17T04:11:55;60.95;;;32.70;;
25569;SDS011;17955;45.542;9.238;2022-10-17T04:14:23;62.05;;;32.50;;
25569;SDS011;17955;45.542;9.238;2022-10-17T04:16:50;58.08;;;32.42;;
25569;SDS011;17955;45.542;9.238;2022-10-17T04:19:19;57.25;;;32.10;;
25569;SDS011;17955;45.542;9.238;2022-10-17T04:21:47;57.97;;;31.58;;
25569;SDS011;17955;45.542;9.238;2022-10-17T04:24:15;59.83;;;33.22;;
25569;SDS011;17955;45.542;9.238;2022-10-17T04:26:43;60.55;;;32.35;;
25569;SDS011;17955;45.542;9.238;2022-10-17T04:29:13;60.65;;;33.00;;
25569;SDS011;17955;45.542;9.238;2022-10-17T04:31:42;57.05;;;32.25;;
25569;SDS011;17955;45.542;9.238;2022-10-17T04:34:16;58.08;;;31.75;;
25569;SDS011;17955;45.542;9.238;2022-10-17T04:36:43;56.53;;;32.38;;
25569;SDS011;17955;45.542;9.238;2022-10-17T04:39:11;59.78;;;33.13;;
25569;SDS011;17955;45.542;9.238;2022-10-17T04:41:39;60.40;;;32.25;;
25569;SDS011;17955;45.542;9.238;2022-10-17T04:44:08;60.35;;;33.00;;
25569;SDS011;17955;45.542;9.238;2022-10-17T04:46:41;69.90;;;32.10;;
25569;SDS011;17955;45.542;9.238;2022-10-17T04:49:08;68.00;;;33.05;;
25569;SDS011;17955;45.542;9.238;2022-10-17T04:51:37;56.75;;;29.10;;
25569;SDS011;17955;45.542;9.238;2022-10-17T04:54:27;56.03;;;30.10;;
25569;SDS011;17955;45.542;9.238;2022-10-17T04:57:01;57.50;;;31.10;;
25569;SDS011;17955;45.542;9.238;2022-10-17T04:59:29;54.45;;;31.00;;
25569;SDS011;17955;45.542;9.238;2022-10-17T05:02:11;65.53;;;31.83;;
25569;SDS011;17955;45.542;9.238;2022-10-17T05:04:39;50.67;;;27.75;;
25569;SDS011;17955;45.542;9.238;2022-10-17T05:07:07;47.85;;;27.83;;
25569;SDS011;17955;45.542;9.238;2022-10-17T05:09:46;56.47;;;30.90;;
25569;SDS011;17955;45.542;9.238;2022-10-17T05:12:15;49.50;;;28.27;;
25569;SDS011;17955;45.542;9.238;2022-10-17T05:14:43;60.92;;;32.10;;
25569;SDS011;17955;45.542;9.238;2022-10-17T05:17:13;54.03;;;30.80;;
25569;SDS011;17955;45.542;9.238;2022-10-17T05:19:42;51.33;;;29.25;;
25569;SDS011;17955;45.542;9.238;2022-10-17T05:22:09;57.50;;;30.65;;
25569;SDS011;17955;45.542;9.238;2022-10-17T05:24:37;49.28;;;29.13;;
25569;SDS011;17955;45.542;9.238;2022-10-17T05:27:04;54.45;;;30.60;;
25569;SDS011;17955;45.542;9.238;2022-10-17T05:29:33;44.22;;;26.63;;
25569;SDS011;17955;45.542;9.238;2022-10-17T05:32:07;45.58;;;27.08;;
25569;SDS011;17955;45.542;9.238;2022-10-17T05:34:37;54.47;;;28.30;;
25569;SDS011;17955;45.542;9.238;2022-10-17T05:37:04;49.20;;;29.05;;
25569;SDS011;17955;45.542;9.238;2022-10-17T05:39:31;53.35;;;27.92;;
25569;SDS011;17955;45.542;9.238;2022-10-17T05:41:59;52.75;;;28.58;;
25569;SDS011;17955;45.542;9.238;2022-10-17T05:44:26;50.13;;;28.40;;
25569;SDS011;17955;45.542;9.238;2022-10-17T05:46:57;49.28;;;28.77;;
25569;SDS011;17955;45.542;9.238;2022-10-17T05:49:25;59.08;;;28.27;;
25569;SDS011;17955;45.542;9.238;2022-10-17T05:51:54;52.40;;;28.58;;
25569;SDS011;17955;45.542;9.238;2022-10-17T05:54:21;51.47;;;27.92;;
25569;SDS011;17955;45.542;9.238;2022-10-17T05:56:50;47.65;;;28.83;;
25569;SDS011;17955;45.542;9.238;2022-10-17T05:59:19;51.28;;;29.17;;
25569;SDS011;17955;45.542;9.238;2022-10-17T06:01:54;57.38;;;28.85;;
25569;SDS011;17955;45.542;9.238;2022-10-17T06:04:21;49.85;;;27.40;;
25569;SDS011;17955;45.542;9.238;2022-10-17T06:06:49;54.28;;;28.35;;
25569;SDS011;17955;45.542;9.238;2022-10-17T06:09:18;50.70;;;27.73;;
25569;SDS011;17955;45.542;9.238;2022-10-17T06:11:48;51.13;;;28.77;;
25569;SDS011;17955;45.542;9.238;2022-10-17T06:14:15;46.05;;;27.83;;
25569;SDS011;17955;45.542;9.238;2022-10-17T06:16:42;54.95;;;29.35;;
25569;SDS011;17955;45.542;9.238;2022-10-17T06:19:09;50.42;;;28.75;;
25569;SDS011;17955;45.542;9.238;2022-10-17T06:21:37;50.60;;;29.38;;
25569;SDS011;17955;45.542;9.238;2022-10-17T06:24:09;47.30;;;26.83;;
25569;SDS011;17955;45.542;9.238;2022-10-17T06:26:40;46.28;;;26.98;;
25569;SDS011;17955;45.542;9.238;2022-10-17T06:29:10;51.47;;;28.45;;
25569;SDS011;17955;45.542;9.238;2022-10-17T06:31:44;50.22;;;26.38;;
25569;SDS011;17955;45.542;9.238;2022-10-17T06:34:12;48.78;;;26.35;;
25569;SDS011;17955;45.542;9.238;2022-10-17T06:36:39;44.95;;;26.60;;
25569;SDS011;17955;45.542;9.238;2022-10-17T06:39:08;42.08;;;23.70;;
25569;SDS011;17955;45.542;9.238;2022-10-17T06:41:59;50.05;;;25.60;;
25569;SDS011;17955;45.542;9.238;2022-10-17T06:44:43;43.85;;;25.02;;
25569;SDS011;17955;45.542;9.238;2022-10-17T06:47:29;46.30;;;25.77;;
25569;SDS011;17955;45.542;9.238;2022-10-17T06:50:00;50.53;;;26.80;;
25569;SDS011;17955;45.542;9.238;2022-10-17T06:52:37;43.33;;;26.05;;
25569;SDS011;17955;45.542;9.238;2022-10-17T06:55:37;51.53;;;26.65;;
25569;SDS011;17955;45.542;9.238;2022-10-17T06:58:28;44.45;;;25.95;;
25569;SDS011;17955;45.542;9.238;2022-10-17T07:01:06;44.83;;;25.55;;
25569;SDS011;17955;45.542;9.238;2022-10-17T07:03:34;46.97;;;25.00;;
25569;SDS011;17955;45.542;9.238;2022-10-17T07:06:01;55.78;;;25.08;;
25569;SDS011;17955;45.542;9.238;2022-10-17T07:08:29;45.72;;;24.83;;
25569;SDS011;17955;45.542;9.238;2022-10-17T07:11:07;41.65;;;24.50;;
25569;SDS011;17955;45.542;9.238;2022-10-17T07:13:36;41.27;;;25.37;;
25569;SDS011;17955;45.542;9.238;2022-10-17T07:16:03;41.35;;;25.23;;
25569;SDS011;17955;45.542;9.238;2022-10-17T07:18:31;38.40;;;23.35;;
25569;SDS011;17955;45.542;9.238;2022-10-17T07:20:58;48.75;;;24.73;;
25569;SDS011;17955;45.542;9.238;2022-10-17T07:23:26;40.92;;;23.25;;
25569;SDS011;17955;45.542;9.238;2022-10-17T07:25:57;44.40;;;25.02;;
25569;SDS011;17955;45.542;9.238;2022-10-17T07:28:25;40.55;;;23.90;;
25569;SDS011;17955;45.542;9.238;2022-10-17T07:30:54;45.03;;;24.83;;
25569;SDS011;17955;45.542;9.238;2022-10-17T07:33:21;43.15;;;24.73;;
25569;SDS011;17955;45.542;9.238;2022-10-17T07:35:49;50.50;;;24.73;;
25569;SDS011;17955;45.542;9.238;2022-10-17T07:38:17;45.25;;;25.17;;
25569;SDS011;17955;45.542;9.238;2022-10-17T07:40:44;41.35;;;23.52;;
25569;SDS011;17955;45.542;9.238;2022-10-17T07:43:12;39.60;;;23.42;;
25569;SDS011;17955;45.542;9.238;2022-10-17T07:45:39;51.95;;;24.27;;
25569;SDS011;17955;45.542;9.238;2022-10-17T07:48:08;43.70;;;24.73;;
25569;SDS011;17955;45.542;9.238;2022-10-17T07:50:36;46.90;;;24.27;;
25569;SDS011;17955;45.542;9.238;2022-10-17T07:53:03;52.05;;;24.08;;
25569;SDS011;17955;45.542;9.238;2022-10-17T07:55:30;43.75;;;25.05;;
25569;SDS011;17955;45.542;9.238;2022-10-17T07:57:57;44.92;;;25.67;;
25569;SDS011;17955;45.542;9.238;2022-10-17T08:00:25;44.13;;;25.40;;
25569;SDS011;17955;45.542;9.238;2022-10-17T08:02:52;46.55;;;24.67;;
25569;SDS011;17955;45.542;9.238;2022-10-17T08:05:20;51.35;;;25.50;;
25569;SDS011;17955;45.542;9.238;2022-10-17T08:07:47;49.17;;;25.40;;
25569;SDS011;17955;45.542;9.238;2022-10-17T08:10:15;44.33;;;25.55;;
25569;SDS011;17955;45.542;9.238;2022-10-17T08:12:42;49.38;;;25.77;;
25569;SDS011;17955;45.542;9.238;2022-10-17T08:15:09;43.35;;;24.02;;
25569;SDS011;17955;45.542;9.238;2022-10-17T08:17:37;49.95;;;25.38;;
25569;SDS011;17955;45.542;9.238;2022-10-17T08:20:05;50.55;;;25.20;;
25569;SDS011;17955;45.542;9.238;2022-10-17T08:22:33;47.47;;;25.67;;
25569;SDS011;17955;45.542;9.238;2022-10-17T08:25:00;54.22;;;26.90;;
25569;SDS011;17955;45.542;9.238;2022-10-17T08:27:27;49.60;;;28.08;;
25569;SDS011;17955;45.542;9.238;2022-10-17T08:29:54;48.97;;;28.02;;
25569;SDS011;17955;45.542;9.238;2022-10-17T08:32:22;55.80;;;28.77;;
25569;SDS011;17955;45.542;9.238;2022-10-17T08:34:50;55.65;;;31.33;;
25569;SDS011;17955;45.542;9.238;2022-10-17T08:37:17;57.47;;;30.27;;
25569;SDS011;17955;45.542;9.238;2022-10-17T08:39:46;50.72;;;28.70;;
25569;SDS011;17955;45.542;9.238;2022-10-17T08:42:22;55.20;;;30.20;;
25569;SDS011;17955;45.542;9.238;2022-10-17T08:45:18;54.20;;;31.88;;
25569;SDS011;17955;45.542;9.238;2022-10-17T08:47:51;59.90;;;31.52;;
25569;SDS011;17955;45.542;9.238;2022-10-17T08:50:21;55.22;;;32.10;;
25569;SDS011;17955;45.542;9.238;2022-10-17T08:52:53;58.28;;;31.55;;
25569;SDS011;17955;45.542;9.238;2022-10-17T08:55:28;57.67;;;33.15;;
25569;SDS011;17955;45.542;9.238;2022-10-17T08:58:00;61.22;;;34.70;;
25569;SDS011;17955;45.542;9.238;2022-10-17T09:00:28;62.25;;;33.63;;
25569;SDS011;17955;45.542;9.238;2022-10-17T09:03:03;60.10;;;31.10;;
25569;SDS011;17955;45.542;9.238;2022-10-17T09:05:43;61.72;;;34.20;;
25569;SDS011;17955;45.542;9.238;2022-10-17T09:08:22;68.97;;;35.35;;
25569;SDS011;17955;45.542;9.238;2022-10-17T09:10:59;58.83;;;32.90;;
25569;SDS011;17955;45.542;9.238;2022-10-17T09:13:38;59.65;;;33.50;;
25569;SDS011;17955;45.542;9.238;2022-10-17T09:16:30;58.03;;;33.00;;
25569;SDS011;17955;45.542;9.238;2022-10-17T09:19:09;66.95;;;33.05;;
25569;SDS011;17955;45.542;9.238;2022-10-17T09:21:41;65.30;;;33.58;;
25569;SDS011;17955;45.542;9.238;2022-10-17T09:24:14;61.38;;;34.80;;
25569;SDS011;17955;45.542;9.238;2022-10-17T09:26:45;65.15;;;34.25;;
25569;SDS011;17955;45.542;9.238;2022-10-17T09:29:14;60.25;;;34.28;;
25569;SDS011;17955;45.542;9.238;2022-10-17T09:31:46;61.50;;;33.80;;
25569;SDS011;17955;45.542;9.238;2022-10-17T09:34:18;61.85;;;33.28;;
25569;SDS011;17955;45.542;9.238;2022-10-17T09:36:46;63.90;;;36.17;;
25569;SDS011;17955;45.542;9.238;2022-10-17T09:39:15;68.68;;;35.95;;
25569;SDS011;17955;45.542;9.238;2022-10-17T09:41:48;67.25;;;36.70;;
25569;SDS011;17955;45.542;9.238;2022-10-17T09:44:18;68.70;;;37.97;;
25569;SDS011;17955;45.542;9.238;2022-10-17T09:46:53;64.47;;;34.88;;
25569;SDS011;17955;45.542;9.238;2022-10-17T09:49:32;72.53;;;36.30;;
25569;SDS011;17955;45.542;9.238;2022-10-17T09:52:02;64.07;;;33.97;;
25569;SDS011;17955;45.542;9.238;2022-10-17T09:54:34;72.05;;;35.67;;
25569;SDS011;17955;45.542;9.238;2022-10-17T09:57:08;63.53;;;35.35;;
25569;SDS011;17955;45.542;9.238;2022-10-17T09:59:37;68.65;;;37.25;;
25569;SDS011;17955;45.542;9.238;2022-10-17T10:02:06;69.28;;;36.70;;
25569;SDS011;17955;45.542;9.238;2022-10-17T10:04:35;62.40;;;35.95;;
25569;SDS011;17955;45.542;9.238;2022-10-17T10:07:03;67.25;;;36.58;;
25569;SDS011;17955;45.542;9.238;2022-10-17T10:09:32;68.20;;;37.58;;
25569;SDS011;17955;45.542;9.238;2022-10-17T10:12:01;72.00;;;36.40;;
25569;SDS011;17955;45.542;9.238;2022-10-17T10:14:33;67.10;;;35.58;;
25569;SDS011;17955;45.542;9.238;2022-10-17T10:17:25;66.63;;;37.72;;
25569;SDS011;17955;45.542;9.238;2022-10-17T10:19:59;67.38;;;37.05;;
25569;SDS011;17955;45.542;9.238;2022-10-17T10:22:27;62.67;;;36.50;;
25569;SDS011;17955;45.542;9.238;2022-10-17T10:25:06;67.45;;;37.55;;
25569;SDS011;17955;45.542;9.238;2022-10-17T10:27:38;69.07;;;37.55;;
25569;SDS011;17955;45.542;9.238;2022-10-17T10:30:15;70.53;;;38.50;;
25569;SDS011;17955;45.542;9.238;2022-10-17T10:32:44;68.40;;;36.00;;
25569;SDS011;17955;45.542;9.238;2022-10-17T10:35:17;67.53;;;36.35;;
25569;SDS011;17955;45.542;9.238;2022-10-17T10:37:47;68.53;;;37.83;;
25569;SDS011;17955;45.542;9.238;2022-10-17T10:40:16;78.53;;;37.85;;
25569;SDS011;17955;45.542;9.238;2022-10-17T10:42:46;75.38;;;39.58;;
25569;SDS011;17955;45.542;9.238;2022-10-17T10:45:18;66.38;;;38.63;;
25569;SDS011;17955;45.542;9.238;2022-10-17T10:47:48;67.10;;;37.40;;
25569;SDS011;17955;45.542;9.238;2022-10-17T10:50:27;70.60;;;36.10;;
25569;SDS011;17955;45.542;9.238;2022-10-17T10:53:04;69.88;;;37.38;;
25569;SDS011;17955;45.542;9.238;2022-10-17T10:55:39;68.60;;;36.58;;
25569;SDS011;17955;45.542;9.238;2022-10-17T10:58:12;69.22;;;37.80;;
25569;SDS011;17955;45.542;9.238;2022-10-17T11:00:58;68.28;;;36.67;;
25569;SDS011;17955;45.542;9.238;2022-10-17T11:03:32;71.47;;;36.55;;
25569;SDS011;17955;45.542;9.238;2022-10-17T11:06:10;72.38;;;38.80;;
25569;SDS011;17955;45.542;9.238;2022-10-17T11:08:41;72.63;;;39.60;;
25569;SDS011;17955;45.542;9.238;2022-10-17T11:11:14;73.13;;;39.40;;
25569;SDS011;17955;45.542;9.238;2022-10-17T11:13:49;67.03;;;37.92;;
25569;SDS011;17955;45.542;9.238;2022-10-17T11:16:26;82.07;;;46.10;;
25569;SDS011;17955;45.542;9.238;2022-10-17T11:18:58;81.47;;;44.92;;
25569;SDS011;17955;45.542;9.238;2022-10-17T11:21:35;88.85;;;46.40;;
25569;SDS011;17955;45.542;9.238;2022-10-17T11:24:09;90.45;;;48.03;;
25569;SDS011;17955;45.542;9.238;2022-10-17T11:26:41;92.18;;;46.72;;
25569;SDS011;17955;45.542;9.238;2022-10-17T11:29:14;87.35;;;46.42;;
25569;SDS011;17955;45.542;9.238;2022-10-17T11:31:43;81.90;;;45.28;;
25569;SDS011;17955;45.542;9.238;2022-10-17T11:34:15;84.43;;;44.60;;
25569;SDS011;17955;45.542;9.238;2022-10-17T11:36:46;84.85;;;47.80;;
25569;SDS011;17955;45.542;9.238;2022-10-17T11:39:17;84.72;;;45.13;;
25569;SDS011;17955;45.542;9.238;2022-10-17T11:41:48;84.53;;;43.33;;
25569;SDS011;17955;45.542;9.238;2022-10-17T11:44:19;82.03;;;42.22;;
25569;SDS011;17955;45.542;9.238;2022-10-17T11:46:59;79.13;;;43.75;;
25569;SDS011;17955;45.542;9.238;2022-10-17T11:49:31;82.57;;;44.90;;
25569;SDS011;17955;45.542;9.238;2022-10-17T11:52:02;77.15;;;43.75;;
25569;SDS011;17955;45.542;9.238;2022-10-17T11:54:39;87.78;;;44.08;;
25569;SDS011;17955;45.542;9.238;2022-10-17T11:57:31;85.63;;;45.35;;
25569;SDS011;17955;45.542;9.238;2022-10-17T12:02:44;89.00;;;46.15;;
25569;SDS011;17955;45.542;9.238;2022-10-17T12:05:18;82.38;;;42.17;;
25569;SDS011;17955;45.542;9.238;2022-10-17T12:07:54;74.80;;;42.15;;
25569;SDS011;17955;45.542;9.238;2022-10-17T12:10:32;70.57;;;41.95;;
25569;SDS011;17955;45.542;9.238;2022-10-17T12:19:30;87.00;;;45.28;;
25569;SDS011;17955;45.542;9.238;2022-10-17T12:22:02;81.78;;;44.75;;
25569;SDS011;17955;45.542;9.238;2022-10-17T12:24:36;80.45;;;44.03;;
25569;SDS011;17955;45.542;9.238;2022-10-17T12:27:22;84.70;;;42.17;;
25569;SDS011;17955;45.542;9.238;2022-10-17T12:29:57;80.32;;;42.97;;
25569;SDS011;17955;45.542;9.238;2022-10-17T12:32:25;76.28;;;41.15;;
25569;SDS011;17955;45.542;9.238;2022-10-17T12:34:53;78.60;;;40.53;;
25569;SDS011;17955;45.542;9.238;2022-10-17T12:43:43;75.72;;;41.40;;
25569;SDS011;17955;45.542;9.238;2022-10-17T12:46:11;76.28;;;41.05;;
25569;SDS011;17955;45.542;9.238;2022-10-17T12:48:59;80.10;;;41.25;;
25569;SDS011;17955;45.542;9.238;2022-10-17T12:51:29;73.45;;;37.33;;
25569;SDS011;17955;45.542;9.238;2022-10-17T12:54:47;71.53;;;38.65;;
25569;SDS011;17955;45.542;9.238;2022-10-17T12:57:37;65.75;;;35.78;;
25569;SDS011;17955;45.542;9.238;2022-10-17T13:00:13;85.93;;;40.83;;
25569;SDS011;17955;45.542;9.238;2022-10-17T13:02:45;80.88;;;38.33;;
25569;SDS011;17955;45.542;9.238;2022-10-17T13:05:14;79.70;;;38.53;;
25569;SDS011;17955;45.542;9.238;2022-10-17T13:07:45;64.43;;;35.40;;
25569;SDS011;17955;45.542;9.238;2022-10-17T13:10:22;71.55;;;36.50;;
25569;SDS011;17955;45.542;9.238;2022-10-17T13:15:19;68.35;;;37.38;;
25569;SDS011;17955;45.542;9.238;2022-10-17T13:17:54;68.75;;;37.00;;
25569;SDS011;17955;45.542;9.238;2022-10-17T13:20:23;70.05;;;36.92;;
25569;SDS011;17955;45.542;9.238;2022-10-17T13:22:54;71.38;;;36.15;;
25569;SDS011;17955;45.542;9.238;2022-10-17T13:25:22;67.25;;;33.35;;
25569;SDS011;17955;45.542;9.238;2022-10-17T13:27:50;62.60;;;33.40;;
25569;SDS011;17955;45.542;9.238;2022-10-17T13:30:30;58.50;;;32.85;;
25569;SDS011;17955;45.542;9.238;2022-10-17T13:32:58;58.08;;;31.77;;
25569;SDS011;17955;45.542;9.238;2022-10-17T13:35:26;60.00;;;34.85;;
25569;SDS011;17955;45.542;9.238;2022-10-17T13:37:57;66.22;;;34.40;;
25569;SDS011;17955;45.542;9.238;2022-10-17T13:40:28;56.17;;;32.08;;
25569;SDS011;17955;45.542;9.238;2022-10-17T13:42:57;57.15;;;31.25;;
25569;SDS011;17955;45.542;9.238;2022-10-17T13:45:27;57.95;;;31.35;;
25569;SDS011;17955;45.542;9.238;2022-10-17T13:47:56;65.55;;;35.17;;
25569;SDS011;17955;45.542;9.238;2022-10-17T13:50:26;63.70;;;32.65;;
25569;SDS011;17955;45.542;9.238;2022-10-17T13:53:06;65.75;;;34.00;;
25569;SDS011;17955;45.542;9.238;2022-10-17T13:55:49;57.63;;;32.20;;
25569;SDS011;17955;45.542;9.238;2022-10-17T14:00:44;61.40;;;31.70;;
25569;SDS011;17955;45.542;9.238;2022-10-17T14:03:14;55.75;;;29.40;;
25569;SDS011;17955;45.542;9.238;2022-10-17T14:05:57;61.60;;;32.50;;
25569;SDS011;17955;45.542;9.238;2022-10-17T14:08:38;56.95;;;30.95;;
25569;SDS011;17955;45.542;9.238;2022-10-17T14:11:13;60.95;;;32.83;;
25569;SDS011;17955;45.542;9.238;2022-10-17T14:13:46;55.42;;;31.13;;
25569;SDS011;17955;45.542;9.238;2022-10-17T14:16:15;57.67;;;31.50;;
25569;SDS011;17955;45.542;9.238;2022-10-17T14:18:44;60.88;;;29.88;;
25569;SDS011;17955;45.542;9.238;2022-10-17T14:21:17;57.70;;;29.85;;
25569;SDS011;17955;45.542;9.238;2022-10-17T14:23:47;61.05;;;32.63;;
25569;SDS011;17955;45.542;9.238;2022-10-17T14:26:15;67.78;;;34.20;;
25569;SDS011;17955;45.542;9.238;2022-10-17T14:28:45;57.03;;;31.80;;
25569;SDS011;17955;45.542;9.238;2022-10-17T14:31:23;52.63;;;30.75;;
25569;SDS011;17955;45.542;9.238;2022-10-17T14:33:54;56.05;;;31.65;;
25569;SDS011;17955;45.542;9.238;2022-10-17T14:36:32;57.58;;;31.02;;
25569;SDS011;17955;45.542;9.238;2022-10-17T14:39:05;62.15;;;29.85;;
25569;SDS011;17955;45.542;9.238;2022-10-17T14:41:34;54.03;;;31.42;;
25569;SDS011;17955;45.542;9.238;2022-10-17T14:44:04;58.95;;;30.05;;
25569;SDS011;17955;45.542;9.238;2022-10-17T14:46:33;59.20;;;30.70;;
25569;SDS011;17955;45.542;9.238;2022-10-17T14:49:04;56.60;;;28.67;;
25569;SDS011;17955;45.542;9.238;2022-10-17T14:51:32;59.33;;;31.02;;
25569;SDS011;17955;45.542;9.238;2022-10-17T14:54:00;61.83;;;31.02;;
25569;SDS011;17955;45.542;9.238;2022-10-17T14:56:35;57.22;;;31.35;;
25569;SDS011;17955;45.542;9.238;2022-10-17T14:59:05;59.42;;;32.03;;
25569;SDS011;17955;45.542;9.238;2022-10-17T15:01:34;56.85;;;31.83;;
25569;SDS011;17955;45.542;9.238;2022-10-17T15:04:01;61.38;;;30.83;;
25569;SDS011;17955;45.542;9.238;2022-10-17T15:06:30;60.05;;;31.27;;
25569;SDS011;17955;45.542;9.238;2022-10-17T15:08:58;58.97;;;30.50;;
25569;SDS011;17955;45.542;9.238;2022-10-17T15:11:25;58.78;;;30.45;;